Terminal Aerodrome Forecast
Issued by NWS

Home | Current Version | Previous Version | Text Only | Print | Product List | Glossary On
Versions: 1 2 3 4 5 6 7 8 9 10 11 12 13 14 15
055
FTUS44 KLZK 230556 AAA
TAFHRO
TAF AMD
KHRO 230556Z 2306/2406 VRB04KT 5SM BR VCSH OVC002
      TEMPO 2310/2314 2SM BR OVC005
     FM231400 31005KT P6SM VCSH SCT005 OVC020
     FM231900 32007KT P6SM -SHRA VCTS SCT025CB BKN060
     FM240200 32004KT P6SM SCT060 BKN250=

USA.gov is the U.S. government's official web portal to all federal, state and local government web resources and services.